Delta Virtual Airport Information Service

Toulouse Blagnac Airport

ICAO: LFBO Country: France
Latitude: 43.635 Longitude: 1.36778
Latest Arrival : DAC1222 (KPDX-LFBO) Latest Departure : DAC1222 (LFBO-KATL)


WX CaptureLIVE
Data provided by noaa.gov | Fetched at 12:04:15

METAR : LFBO 281630Z AUTO 13016G26KT 9999 FEW013 18/10 Q1013 NOSIG

TAF : LFBO 281100Z 2812/2918 14015G25KT CAVOK PROB30 TEMPO 2820/2824 14020G35KT BECMG 2900/2902 14010KT


Runway Data for LFBO
Data provided by openaviationdata.com

Runway ID Mag Var Hdg Length Elevation Surface ILS Freq ILS Id ILS Slope
14L -1 143° 9908 ft 499 ft Asphalt 108.9 TG 3
14R -1 143° 11483 ft 499 ft Asphalt 110.7 TBS 3
32L -1 323° 11483 ft 499 ft Asphalt 109.3 TBN 3
32R -1 323° 9908 ft 499 ft Asphalt 108.35 TD 3

Toulouse Blagnac Airport, France
Use only for reference purposes



Not for navigational purposes.